IGO5312 VEHO-VECC
Flight info
| Callsign | IGO5312 |
|---|---|
| Flight time | 1h 43m |
| Altitude | 38000 |
| Route | KALAM W51 GGT R472 RAJ DCT AGODA AGODA2G |
| Aircraft | A320/M-SDE3FGHIRWY/LB1 |
Departure
| Time | 2026-05-08 06:33 |
|---|---|
| Airport | Itanagar Donyi Polo Hollongi Airport (VEHO) |
Arrival
| Time | 2026-05-08 08:16 |
|---|---|
| Airport | Netaji Subhash Chandra Bose International Airport (VECC) |
| Time | Latitude | Longitude | Altitude | Speed | Heading |
|---|---|---|---|---|---|
| 2026-05-08 06:15 | 26.97085 | 93.64294 | 358 ft | 0 kts | 346° |
| 2026-05-08 06:23 | 26.97071 | 93.64298 | 364 ft | 4 kts | 346° |
| 2026-05-08 06:23 | 26.97045 | 93.64305 | 358 ft | 4 kts | 352° |
| 2026-05-08 06:24 | 26.97019 | 93.64304 | 358 ft | 4 kts | 23° |
| 2026-05-08 06:24 | 26.97003 | 93.64289 | 358 ft | 2 kts | 75° |
| 2026-05-08 06:24 | 26.97002 | 93.64287 | 363 ft | 0 kts | 76° |
| 2026-05-08 06:27 | 26.97003 | 93.64292 | 358 ft | 3 kts | 76° |
| 2026-05-08 06:27 | 26.97010 | 93.64323 | 358 ft | 6 kts | 76° |
| 2026-05-08 06:27 | 26.97025 | 93.64385 | 366 ft | 12 kts | 75° |
| 2026-05-08 06:27 | 26.97009 | 93.64456 | 361 ft | 11 kts | 157° |
| 2026-05-08 06:28 | 26.96922 | 93.64482 | 363 ft | 15 kts | 166° |
| 2026-05-08 06:28 | 26.96856 | 93.64463 | 364 ft | 11 kts | 242° |
| 2026-05-08 06:28 | 26.96835 | 93.64368 | 361 ft | 14 kts | 257° |
| 2026-05-08 06:28 | 26.96811 | 93.64251 | 362 ft | 17 kts | 257° |
| 2026-05-08 06:29 | 26.96778 | 93.64112 | 362 ft | 20 kts | 255° |
| 2026-05-08 06:29 | 26.96739 | 93.63953 | 363 ft | 23 kts | 254° |
| 2026-05-08 06:29 | 26.96699 | 93.63771 | 366 ft | 25 kts | 256° |
| 2026-05-08 06:29 | 26.96655 | 93.63570 | 363 ft | 28 kts | 255° |
| 2026-05-08 06:30 | 26.96606 | 93.63364 | 363 ft | 28 kts | 255° |
| 2026-05-08 06:30 | 26.96554 | 93.63142 | 366 ft | 30 kts | 256° |
| 2026-05-08 06:30 | 26.96508 | 93.62953 | 364 ft | 18 kts | 245° |
| 2026-05-08 06:30 | 26.96468 | 93.62865 | 360 ft | 10 kts | 295° |
| 2026-05-08 06:31 | 26.96498 | 93.62901 | 364 ft | 9 kts | 76° |
| 2026-05-08 06:31 | 26.96510 | 93.62952 | 360 ft | 0 kts | 75° |
| 2026-05-08 06:32 | 26.96510 | 93.62954 | 360 ft | 1 kts | 75° |
| 2026-05-08 06:32 | 26.96526 | 93.63021 | 364 ft | 28 kts | 75° |
| 2026-05-08 06:32 | 26.96652 | 93.63571 | 359 ft | 118 kts | 75° |
| 2026-05-08 06:32 | 26.96905 | 93.64691 | 634 ft | 163 kts | 76° |
| 2026-05-08 06:33 | 26.97188 | 93.65932 | 1593 ft | 166 kts | 76° |
| 2026-05-08 06:33 | 26.97399 | 93.67266 | 2350 ft | 187 kts | 94° |
| 2026-05-08 06:33 | 26.96818 | 93.68595 | 2757 ft | 202 kts | 140° |
| 2026-05-08 06:33 | 26.95449 | 93.69160 | 2998 ft | 226 kts | 175° |
| 2026-05-08 06:34 | 26.93795 | 93.69233 | 3372 ft | 250 kts | 179° |
| 2026-05-08 06:34 | 26.91982 | 93.69251 | 3887 ft | 268 kts | 179° |
| 2026-05-08 06:34 | 26.90092 | 93.69270 | 4713 ft | 273 kts | 179° |
| 2026-05-08 06:34 | 26.88197 | 93.69304 | 5575 ft | 277 kts | 179° |
| 2026-05-08 06:35 | 26.86256 | 93.69357 | 6433 ft | 281 kts | 179° |
| 2026-05-08 06:35 | 26.84283 | 93.69426 | 7293 ft | 285 kts | 178° |
| 2026-05-08 06:35 | 26.82285 | 93.69505 | 8106 ft | 289 kts | 178° |
| 2026-05-08 06:35 | 26.80256 | 93.69590 | 8905 ft | 293 kts | 178° |
| 2026-05-08 06:36 | 26.78203 | 93.69680 | 9645 ft | 298 kts | 178° |
| 2026-05-08 06:36 | 26.76121 | 93.69773 | 9926 ft | 300 kts | 178° |
| 2026-05-08 06:36 | 26.74011 | 93.69871 | 10117 ft | 314 kts | 178° |
| 2026-05-08 06:36 | 26.71757 | 93.69977 | 10488 ft | 331 kts | 178° |
| 2026-05-08 06:37 | 26.69435 | 93.70084 | 11183 ft | 336 kts | 178° |
| 2026-05-08 06:37 | 26.67087 | 93.70187 | 11956 ft | 339 kts | 178° |
| 2026-05-08 06:37 | 26.64729 | 93.70092 | 12734 ft | 341 kts | 191° |
| 2026-05-08 06:37 | 26.62498 | 93.69198 | 13484 ft | 343 kts | 210° |
| 2026-05-08 06:38 | 26.60645 | 93.67529 | 14216 ft | 344 kts | 229° |
| 2026-05-08 06:38 | 26.59377 | 93.65268 | 14942 ft | 346 kts | 248° |
| 2026-05-08 06:38 | 26.58708 | 93.62686 | 15647 ft | 347 kts | 256° |
| 2026-05-08 06:38 | 26.58120 | 93.60063 | 16365 ft | 348 kts | 256° |
| 2026-05-08 06:39 | 26.57530 | 93.57431 | 17063 ft | 350 kts | 256° |
| 2026-05-08 06:39 | 26.56942 | 93.54827 | 17734 ft | 351 kts | 256° |
| 2026-05-08 06:39 | 26.56339 | 93.52175 | 18399 ft | 353 kts | 255° |
| 2026-05-08 06:39 | 26.55729 | 93.49514 | 19049 ft | 355 kts | 255° |
| 2026-05-08 06:40 | 26.55113 | 93.46839 | 19673 ft | 357 kts | 255° |
| 2026-05-08 06:40 | 26.54495 | 93.44148 | 20285 ft | 358 kts | 255° |
| 2026-05-08 06:40 | 26.53879 | 93.41452 | 20872 ft | 359 kts | 255° |
| 2026-05-08 06:40 | 26.53258 | 93.38745 | 21446 ft | 361 kts | 255° |
| 2026-05-08 06:41 | 26.52628 | 93.36024 | 21994 ft | 362 kts | 255° |
| 2026-05-08 06:41 | 26.51992 | 93.33297 | 22515 ft | 364 kts | 255° |
| 2026-05-08 06:41 | 26.51353 | 93.30563 | 23041 ft | 365 kts | 255° |
| 2026-05-08 06:41 | 26.50713 | 93.27819 | 23533 ft | 366 kts | 255° |
| 2026-05-08 06:42 | 26.50069 | 93.25060 | 24015 ft | 368 kts | 255° |
| 2026-05-08 06:42 | 26.49421 | 93.22293 | 24470 ft | 369 kts | 255° |
| 2026-05-08 06:42 | 26.48772 | 93.19510 | 24950 ft | 371 kts | 255° |
| 2026-05-08 06:42 | 26.48122 | 93.16724 | 25424 ft | 371 kts | 254° |
| 2026-05-08 06:43 | 26.47469 | 93.13931 | 25897 ft | 372 kts | 254° |
| 2026-05-08 06:43 | 26.46817 | 93.11135 | 26377 ft | 373 kts | 254° |
| 2026-05-08 06:43 | 26.46171 | 93.08370 | 26829 ft | 373 kts | 254° |
| 2026-05-08 06:43 | 26.45513 | 93.05562 | 27279 ft | 374 kts | 253° |
| 2026-05-08 06:44 | 26.44854 | 93.02756 | 27710 ft | 374 kts | 253° |
| 2026-05-08 06:44 | 26.44193 | 92.99945 | 28134 ft | 375 kts | 253° |
| 2026-05-08 06:44 | 26.43530 | 92.97132 | 28558 ft | 375 kts | 253° |
| 2026-05-08 06:44 | 26.42862 | 92.94315 | 28990 ft | 376 kts | 253° |
| 2026-05-08 06:45 | 26.41980 | 92.91571 | 29408 ft | 375 kts | 246° |
| 2026-05-08 06:45 | 26.40959 | 92.88887 | 29851 ft | 376 kts | 246° |
| 2026-05-08 06:45 | 26.39928 | 92.86206 | 30277 ft | 376 kts | 245° |
| 2026-05-08 06:45 | 26.38891 | 92.83524 | 30689 ft | 377 kts | 245° |
| 2026-05-08 06:46 | 26.37847 | 92.80826 | 31080 ft | 378 kts | 245° |
| 2026-05-08 06:46 | 26.36801 | 92.78117 | 31432 ft | 380 kts | 245° |
| 2026-05-08 06:46 | 26.35755 | 92.75404 | 31794 ft | 381 kts | 245° |
| 2026-05-08 06:46 | 26.34712 | 92.72700 | 32265 ft | 380 kts | 245° |
| 2026-05-08 06:47 | 26.33684 | 92.70036 | 32769 ft | 377 kts | 245° |
| 2026-05-08 06:47 | 26.32648 | 92.67357 | 33274 ft | 375 kts | 246° |
| 2026-05-08 06:47 | 26.31617 | 92.64693 | 33763 ft | 373 kts | 246° |
| 2026-05-08 06:47 | 26.30591 | 92.62043 | 34232 ft | 372 kts | 246° |
| 2026-05-08 06:48 | 26.29567 | 92.59401 | 34641 ft | 370 kts | 246° |
| 2026-05-08 06:48 | 26.28547 | 92.56773 | 35036 ft | 370 kts | 246° |
| 2026-05-08 06:48 | 26.27527 | 92.54141 | 35414 ft | 369 kts | 246° |
| 2026-05-08 06:48 | 26.26511 | 92.51517 | 35772 ft | 369 kts | 246° |
| 2026-05-08 06:49 | 26.25492 | 92.48893 | 36126 ft | 368 kts | 246° |
| 2026-05-08 06:49 | 26.24475 | 92.46279 | 36464 ft | 368 kts | 246° |
| 2026-05-08 06:49 | 26.23457 | 92.43668 | 36769 ft | 368 kts | 246° |
| 2026-05-08 06:49 | 26.22438 | 92.41059 | 37097 ft | 367 kts | 246° |
| 2026-05-08 06:50 | 26.21425 | 92.38461 | 37490 ft | 365 kts | 246° |
| 2026-05-08 06:50 | 26.20422 | 92.35880 | 37893 ft | 362 kts | 246° |
| 2026-05-08 06:50 | 26.19421 | 92.33305 | 38023 ft | 361 kts | 246° |
| 2026-05-08 06:50 | 26.18423 | 92.30742 | 38044 ft | 360 kts | 246° |
| 2026-05-08 06:51 | 26.16434 | 92.25632 | 38046 ft | 359 kts | 246° |
| 2026-05-08 06:51 | 26.14439 | 92.20541 | 38054 ft | 359 kts | 246° |
| 2026-05-08 06:52 | 26.12443 | 92.15442 | 38056 ft | 359 kts | 246° |
| 2026-05-08 06:52 | 26.10443 | 92.10350 | 38064 ft | 359 kts | 246° |
| 2026-05-08 06:53 | 26.08787 | 92.06118 | 38063 ft | 359 kts | 246° |
| 2026-05-08 06:53 | 26.06464 | 92.00201 | 38026 ft | 358 kts | 246° |
| 2026-05-08 06:54 | 26.04463 | 91.95115 | 38021 ft | 359 kts | 245° |
| 2026-05-08 06:54 | 26.02783 | 91.90848 | 38017 ft | 360 kts | 245° |
| 2026-05-08 06:55 | 26.00772 | 91.85749 | 38012 ft | 360 kts | 246° |
| 2026-05-08 06:55 | 25.98768 | 91.80677 | 38008 ft | 360 kts | 245° |
| 2026-05-08 06:56 | 25.96752 | 91.75583 | 38002 ft | 360 kts | 245° |
| 2026-05-08 06:56 | 25.94737 | 91.70490 | 37993 ft | 359 kts | 245° |
| 2026-05-08 06:57 | 25.92722 | 91.65403 | 37984 ft | 360 kts | 245° |
| 2026-05-08 06:57 | 25.90697 | 91.60307 | 37974 ft | 360 kts | 245° |
| 2026-05-08 06:58 | 25.88674 | 91.55210 | 37970 ft | 361 kts | 245° |
| 2026-05-08 06:58 | 25.86662 | 91.50141 | 37974 ft | 361 kts | 246° |
| 2026-05-08 06:59 | 25.84629 | 91.45028 | 37972 ft | 361 kts | 245° |
| 2026-05-08 06:59 | 25.82595 | 91.39924 | 37978 ft | 362 kts | 245° |
| 2026-05-08 07:00 | 25.80552 | 91.34815 | 37966 ft | 362 kts | 245° |
| 2026-05-08 07:00 | 25.78504 | 91.29706 | 37979 ft | 363 kts | 245° |
| 2026-05-08 07:01 | 25.76462 | 91.24588 | 37984 ft | 362 kts | 246° |
| 2026-05-08 07:01 | 25.74418 | 91.19477 | 37988 ft | 362 kts | 245° |
| 2026-05-08 07:02 | 25.72381 | 91.14400 | 37991 ft | 362 kts | 245° |
| 2026-05-08 07:02 | 25.70328 | 91.09295 | 37988 ft | 363 kts | 245° |
| 2026-05-08 07:03 | 25.68270 | 91.04182 | 37940 ft | 362 kts | 246° |
| 2026-05-08 07:03 | 25.66218 | 90.99092 | 37933 ft | 361 kts | 246° |
| 2026-05-08 07:04 | 25.64167 | 90.94008 | 37934 ft | 362 kts | 246° |
| 2026-05-08 07:04 | 25.62127 | 90.88944 | 37936 ft | 362 kts | 246° |
| 2026-05-08 07:05 | 25.60071 | 90.83851 | 37933 ft | 362 kts | 245° |
| 2026-05-08 07:05 | 25.58007 | 90.78759 | 37930 ft | 362 kts | 245° |
| 2026-05-08 07:06 | 25.55945 | 90.73664 | 37931 ft | 363 kts | 245° |
| 2026-05-08 07:06 | 25.53872 | 90.68564 | 37933 ft | 363 kts | 245° |
| 2026-05-08 07:07 | 25.51800 | 90.63458 | 37941 ft | 363 kts | 246° |
| 2026-05-08 07:07 | 25.49740 | 90.58356 | 37943 ft | 363 kts | 245° |
| 2026-05-08 07:08 | 25.47667 | 90.53261 | 37941 ft | 363 kts | 246° |
| 2026-05-08 07:08 | 25.45585 | 90.48170 | 37936 ft | 363 kts | 245° |
| 2026-05-08 07:09 | 25.43510 | 90.43078 | 37938 ft | 363 kts | 245° |
| 2026-05-08 07:09 | 25.41445 | 90.38014 | 37938 ft | 363 kts | 245° |
| 2026-05-08 07:10 | 25.39367 | 90.32924 | 37943 ft | 363 kts | 245° |
| 2026-05-08 07:10 | 25.37282 | 90.27849 | 37951 ft | 362 kts | 245° |
| 2026-05-08 07:11 | 25.35203 | 90.22766 | 37948 ft | 362 kts | 245° |
| 2026-05-08 07:11 | 25.33123 | 90.17690 | 37952 ft | 362 kts | 245° |
| 2026-05-08 07:12 | 25.31040 | 90.12616 | 37944 ft | 363 kts | 245° |
| 2026-05-08 07:12 | 25.28949 | 90.07542 | 37950 ft | 363 kts | 245° |
| 2026-05-08 07:13 | 25.26852 | 90.02478 | 37941 ft | 362 kts | 243° |
| 2026-05-08 07:13 | 25.24199 | 89.97749 | 37947 ft | 362 kts | 239° |
| 2026-05-08 07:14 | 25.21485 | 89.93050 | 37943 ft | 363 kts | 239° |
| 2026-05-08 07:14 | 25.18758 | 89.88354 | 37936 ft | 363 kts | 238° |
| 2026-05-08 07:15 | 25.16020 | 89.83651 | 37936 ft | 364 kts | 238° |
| 2026-05-08 07:15 | 25.13301 | 89.78973 | 37938 ft | 365 kts | 238° |
| 2026-05-08 07:16 | 25.10562 | 89.74260 | 37943 ft | 365 kts | 238° |
| 2026-05-08 07:16 | 25.07817 | 89.69546 | 37940 ft | 365 kts | 238° |
| 2026-05-08 07:17 | 25.05067 | 89.64834 | 37944 ft | 365 kts | 238° |
| 2026-05-08 07:17 | 25.02315 | 89.60115 | 37933 ft | 365 kts | 239° |
| 2026-05-08 07:18 | 24.99558 | 89.55406 | 37932 ft | 366 kts | 238° |
| 2026-05-08 07:18 | 24.96803 | 89.50693 | 37931 ft | 366 kts | 239° |
| 2026-05-08 07:19 | 24.94039 | 89.45976 | 37928 ft | 367 kts | 238° |
| 2026-05-08 07:19 | 24.91267 | 89.41253 | 37932 ft | 367 kts | 238° |
| 2026-05-08 07:20 | 24.88492 | 89.36525 | 37940 ft | 367 kts | 238° |
| 2026-05-08 07:20 | 24.85718 | 89.31801 | 37938 ft | 368 kts | 238° |
| 2026-05-08 07:21 | 24.82947 | 89.27110 | 37938 ft | 368 kts | 238° |
| 2026-05-08 07:21 | 24.80149 | 89.22386 | 37941 ft | 368 kts | 238° |
| 2026-05-08 07:22 | 24.77351 | 89.17664 | 37938 ft | 369 kts | 238° |
| 2026-05-08 07:22 | 24.74549 | 89.12933 | 37943 ft | 369 kts | 238° |
| 2026-05-08 07:23 | 24.71746 | 89.08208 | 37942 ft | 369 kts | 238° |
| 2026-05-08 07:23 | 24.68918 | 89.03444 | 37694 ft | 377 kts | 238° |
| 2026-05-08 07:24 | 24.67477 | 89.01020 | 37442 ft | 378 kts | 238° |
| 2026-05-08 07:24 | 24.66039 | 88.98598 | 37194 ft | 378 kts | 238° |
| 2026-05-08 07:24 | 24.64606 | 88.96185 | 36944 ft | 376 kts | 238° |
| 2026-05-08 07:24 | 24.63177 | 88.93787 | 36694 ft | 373 kts | 238° |
| 2026-05-08 07:25 | 24.61759 | 88.91408 | 36436 ft | 370 kts | 238° |
| 2026-05-08 07:25 | 24.60369 | 88.89075 | 36189 ft | 369 kts | 238° |
| 2026-05-08 07:25 | 24.57546 | 88.84350 | 35691 ft | 370 kts | 237° |
| 2026-05-08 07:26 | 24.56136 | 88.81988 | 35442 ft | 370 kts | 238° |
| 2026-05-08 07:26 | 24.54727 | 88.79626 | 35189 ft | 369 kts | 237° |
| 2026-05-08 07:26 | 24.53327 | 88.77281 | 34952 ft | 361 kts | 237° |
| 2026-05-08 07:26 | 24.51958 | 88.74990 | 34599 ft | 356 kts | 237° |
| 2026-05-08 07:27 | 24.50609 | 88.72734 | 34199 ft | 352 kts | 237° |
| 2026-05-08 07:27 | 24.49274 | 88.70501 | 33806 ft | 347 kts | 237° |
| 2026-05-08 07:27 | 24.47956 | 88.68301 | 33418 ft | 343 kts | 237° |
| 2026-05-08 07:27 | 24.46652 | 88.66124 | 33024 ft | 340 kts | 237° |
| 2026-05-08 07:28 | 24.45180 | 88.64114 | 32644 ft | 337 kts | 226° |
| 2026-05-08 07:28 | 24.43329 | 88.62524 | 32190 ft | 340 kts | 215° |
| 2026-05-08 07:28 | 24.41152 | 88.61436 | 31725 ft | 348 kts | 203° |
| 2026-05-08 07:28 | 24.38750 | 88.60919 | 31254 ft | 356 kts | 194° |
| 2026-05-08 07:29 | 24.36293 | 88.60639 | 30782 ft | 355 kts | 194° |
| 2026-05-08 07:29 | 24.33841 | 88.60359 | 30344 ft | 353 kts | 194° |
| 2026-05-08 07:29 | 24.31406 | 88.60082 | 29932 ft | 351 kts | 193° |
| 2026-05-08 07:29 | 24.28982 | 88.59832 | 29531 ft | 349 kts | 193° |
| 2026-05-08 07:30 | 24.26572 | 88.59606 | 29147 ft | 347 kts | 193° |
| 2026-05-08 07:30 | 24.24177 | 88.59390 | 28760 ft | 344 kts | 192° |
| 2026-05-08 07:30 | 24.21799 | 88.59173 | 28382 ft | 341 kts | 192° |
| 2026-05-08 07:30 | 24.19473 | 88.58955 | 28013 ft | 338 kts | 192° |
| 2026-05-08 07:31 | 24.17138 | 88.58733 | 27650 ft | 335 kts | 193° |
| 2026-05-08 07:31 | 24.14825 | 88.58512 | 27260 ft | 332 kts | 192° |
| 2026-05-08 07:31 | 24.12532 | 88.58294 | 26882 ft | 329 kts | 192° |
| 2026-05-08 07:31 | 24.10255 | 88.58079 | 26504 ft | 327 kts | 192° |
| 2026-05-08 07:32 | 24.08001 | 88.57866 | 26117 ft | 324 kts | 192° |
| 2026-05-08 07:32 | 24.05759 | 88.57657 | 25729 ft | 322 kts | 192° |
| 2026-05-08 07:32 | 24.03529 | 88.57448 | 25329 ft | 321 kts | 192° |
| 2026-05-08 07:32 | 24.01308 | 88.57239 | 24932 ft | 319 kts | 192° |
| 2026-05-08 07:33 | 23.99100 | 88.57026 | 24534 ft | 318 kts | 191° |
| 2026-05-08 07:33 | 23.96891 | 88.56812 | 24120 ft | 317 kts | 191° |
| 2026-05-08 07:33 | 23.94694 | 88.56602 | 23734 ft | 316 kts | 191° |
| 2026-05-08 07:33 | 23.92500 | 88.56395 | 23294 ft | 317 kts | 191° |
| 2026-05-08 07:34 | 23.90304 | 88.56186 | 22876 ft | 316 kts | 191° |
| 2026-05-08 07:34 | 23.88111 | 88.55978 | 22468 ft | 316 kts | 191° |
| 2026-05-08 07:34 | 23.85924 | 88.55772 | 22064 ft | 316 kts | 191° |
| 2026-05-08 07:34 | 23.83733 | 88.55564 | 21656 ft | 315 kts | 191° |
| 2026-05-08 07:35 | 23.81549 | 88.55356 | 21246 ft | 315 kts | 191° |
| 2026-05-08 07:35 | 23.79365 | 88.55151 | 20835 ft | 315 kts | 190° |
| 2026-05-08 07:35 | 23.77181 | 88.54947 | 20418 ft | 315 kts | 190° |
| 2026-05-08 07:35 | 23.74997 | 88.54743 | 20003 ft | 315 kts | 190° |
| 2026-05-08 07:36 | 23.72815 | 88.54538 | 19595 ft | 314 kts | 190° |
| 2026-05-08 07:36 | 23.70632 | 88.54331 | 19183 ft | 314 kts | 190° |
| 2026-05-08 07:36 | 23.68481 | 88.54127 | 18779 ft | 314 kts | 190° |
| 2026-05-08 07:36 | 23.66300 | 88.53919 | 18366 ft | 314 kts | 190° |
| 2026-05-08 07:37 | 23.64118 | 88.53714 | 17955 ft | 314 kts | 190° |
| 2026-05-08 07:37 | 23.61942 | 88.53509 | 17542 ft | 314 kts | 190° |
| 2026-05-08 07:37 | 23.59763 | 88.53301 | 17133 ft | 314 kts | 189° |
| 2026-05-08 07:37 | 23.57588 | 88.53095 | 16733 ft | 314 kts | 189° |
| 2026-05-08 07:38 | 23.55406 | 88.52891 | 16317 ft | 314 kts | 189° |
| 2026-05-08 07:38 | 23.53230 | 88.52686 | 15899 ft | 314 kts | 189° |
| 2026-05-08 07:38 | 23.51053 | 88.52481 | 15502 ft | 315 kts | 189° |
| 2026-05-08 07:38 | 23.48876 | 88.52275 | 15097 ft | 314 kts | 189° |
| 2026-05-08 07:39 | 23.46696 | 88.52069 | 14692 ft | 314 kts | 188° |
| 2026-05-08 07:39 | 23.44517 | 88.51865 | 14285 ft | 314 kts | 188° |
| 2026-05-08 07:39 | 23.42340 | 88.51660 | 13878 ft | 314 kts | 188° |
| 2026-05-08 07:39 | 23.40158 | 88.51454 | 13472 ft | 315 kts | 188° |
| 2026-05-08 07:40 | 23.37975 | 88.51247 | 13062 ft | 315 kts | 188° |
| 2026-05-08 07:40 | 23.36528 | 88.51113 | 12791 ft | 315 kts | 188° |
| 2026-05-08 07:40 | 23.33605 | 88.50843 | 12240 ft | 315 kts | 187° |
| 2026-05-08 07:40 | 23.32158 | 88.50709 | 11965 ft | 315 kts | 187° |
| 2026-05-08 07:41 | 23.29253 | 88.50439 | 11425 ft | 319 kts | 187° |
| 2026-05-08 07:41 | 23.27045 | 88.50233 | 11001 ft | 318 kts | 187° |
| 2026-05-08 07:41 | 23.25560 | 88.50089 | 10721 ft | 317 kts | 187° |
| 2026-05-08 07:41 | 23.22659 | 88.49823 | 10171 ft | 315 kts | 186° |
| 2026-05-08 07:42 | 23.21186 | 88.49691 | 9946 ft | 313 kts | 185° |
| 2026-05-08 07:42 | 23.19055 | 88.49544 | 9882 ft | 301 kts | 184° |
| 2026-05-08 07:42 | 23.16972 | 88.49429 | 9898 ft | 299 kts | 184° |
| 2026-05-08 07:42 | 23.14897 | 88.49324 | 9897 ft | 299 kts | 184° |
| 2026-05-08 07:43 | 23.12847 | 88.49219 | 9859 ft | 299 kts | 184° |
| 2026-05-08 07:43 | 23.10768 | 88.49111 | 9437 ft | 300 kts | 184° |
| 2026-05-08 07:43 | 23.08689 | 88.48998 | 9055 ft | 298 kts | 184° |
| 2026-05-08 07:43 | 23.06578 | 88.48883 | 8279 ft | 310 kts | 183° |
| 2026-05-08 07:44 | 23.04376 | 88.48760 | 7485 ft | 322 kts | 184° |
| 2026-05-08 07:44 | 23.02157 | 88.48633 | 7188 ft | 315 kts | 184° |
| 2026-05-08 07:44 | 23.00004 | 88.48496 | 6919 ft | 307 kts | 185° |
| 2026-05-08 07:44 | 22.97869 | 88.48306 | 6401 ft | 308 kts | 186° |
| 2026-05-08 07:45 | 22.95740 | 88.48086 | 5931 ft | 307 kts | 186° |
| 2026-05-08 07:45 | 22.93616 | 88.47858 | 5476 ft | 306 kts | 186° |
| 2026-05-08 07:45 | 22.91503 | 88.47633 | 5015 ft | 306 kts | 186° |
| 2026-05-08 07:45 | 22.89383 | 88.47414 | 4560 ft | 307 kts | 186° |
| 2026-05-08 07:46 | 22.87269 | 88.47201 | 4098 ft | 305 kts | 186° |
| 2026-05-08 07:46 | 22.85161 | 88.46993 | 3642 ft | 304 kts | 186° |
| 2026-05-08 07:46 | 22.83063 | 88.46792 | 3281 ft | 303 kts | 186° |
| 2026-05-08 07:46 | 22.80964 | 88.46588 | 2845 ft | 304 kts | 186° |
| 2026-05-08 07:47 | 22.78892 | 88.46378 | 2695 ft | 291 kts | 186° |
| 2026-05-08 07:47 | 22.76955 | 88.46142 | 2700 ft | 276 kts | 187° |
| 2026-05-08 07:47 | 22.75096 | 88.45906 | 2712 ft | 262 kts | 187° |
| 2026-05-08 07:47 | 22.73338 | 88.45699 | 2710 ft | 246 kts | 187° |
| 2026-05-08 07:48 | 22.71686 | 88.45507 | 2709 ft | 231 kts | 187° |
| 2026-05-08 07:48 | 22.70142 | 88.45326 | 2704 ft | 214 kts | 187° |
| 2026-05-08 07:48 | 22.68714 | 88.45159 | 2701 ft | 200 kts | 187° |
| 2026-05-08 07:48 | 22.67371 | 88.45261 | 2713 ft | 189 kts | 158° |
| 2026-05-08 07:49 | 22.66465 | 88.46144 | 2746 ft | 168 kts | 114° |
| 2026-05-08 07:49 | 22.66266 | 88.47342 | 2887 ft | 157 kts | 94° |
| 2026-05-08 07:49 | 22.66266 | 88.48524 | 3003 ft | 157 kts | 89° |
| 2026-05-08 07:49 | 22.66327 | 88.49705 | 2995 ft | 157 kts | 78° |
| 2026-05-08 07:50 | 22.66912 | 88.50651 | 3004 ft | 156 kts | 26° |
| 2026-05-08 07:50 | 22.67947 | 88.50979 | 3001 ft | 155 kts | 5° |
| 2026-05-08 07:50 | 22.69023 | 88.51065 | 3005 ft | 155 kts | 0° |
| 2026-05-08 07:50 | 22.70106 | 88.51103 | 3007 ft | 154 kts | 0° |
| 2026-05-08 07:51 | 22.71182 | 88.51130 | 3013 ft | 155 kts | 358° |
| 2026-05-08 07:51 | 22.72275 | 88.51154 | 3005 ft | 156 kts | 359° |
| 2026-05-08 07:51 | 22.73340 | 88.51180 | 3004 ft | 157 kts | 359° |
| 2026-05-08 07:51 | 22.74427 | 88.51210 | 3003 ft | 154 kts | 0° |
| 2026-05-08 07:52 | 22.75499 | 88.51247 | 3007 ft | 153 kts | 360° |
| 2026-05-08 07:52 | 22.76570 | 88.51275 | 3009 ft | 154 kts | 359° |
| 2026-05-08 07:52 | 22.77645 | 88.51305 | 3008 ft | 154 kts | 358° |
| 2026-05-08 07:52 | 22.78719 | 88.51336 | 3008 ft | 155 kts | 359° |
| 2026-05-08 07:53 | 22.79792 | 88.51364 | 3008 ft | 154 kts | 359° |
| 2026-05-08 07:53 | 22.80869 | 88.51394 | 3009 ft | 154 kts | 360° |
| 2026-05-08 07:53 | 22.81943 | 88.51417 | 3020 ft | 156 kts | 0° |
| 2026-05-08 07:53 | 22.83034 | 88.51440 | 3012 ft | 156 kts | 359° |
| 2026-05-08 07:54 | 22.84112 | 88.51463 | 3016 ft | 155 kts | 359° |
| 2026-05-08 07:54 | 22.85190 | 88.51487 | 2927 ft | 156 kts | 0° |
| 2026-05-08 07:54 | 22.86269 | 88.51402 | 2722 ft | 155 kts | 334° |
| 2026-05-08 07:54 | 22.87001 | 88.50619 | 2534 ft | 149 kts | 287° |
| 2026-05-08 07:55 | 22.87189 | 88.49526 | 2339 ft | 147 kts | 272° |
| 2026-05-08 07:55 | 22.87233 | 88.48440 | 2132 ft | 144 kts | 268° |
| 2026-05-08 07:55 | 22.86860 | 88.47479 | 2042 ft | 143 kts | 218° |
| 2026-05-08 07:55 | 22.85969 | 88.47013 | 2012 ft | 143 kts | 198° |
| 2026-05-08 07:56 | 22.84994 | 88.46746 | 2013 ft | 145 kts | 189° |
| 2026-05-08 07:56 | 22.83993 | 88.46616 | 2011 ft | 145 kts | 187° |
| 2026-05-08 07:56 | 22.82985 | 88.46525 | 2030 ft | 150 kts | 186° |
| 2026-05-08 07:56 | 22.81976 | 88.46432 | 1819 ft | 144 kts | 186° |
| 2026-05-08 07:57 | 22.80986 | 88.46374 | 1571 ft | 139 kts | 183° |
| 2026-05-08 07:57 | 22.80018 | 88.46363 | 1416 ft | 140 kts | 181° |
| 2026-05-08 07:57 | 22.79038 | 88.46372 | 1212 ft | 143 kts | 182° |
| 2026-05-08 07:57 | 22.78042 | 88.46307 | 1033 ft | 141 kts | 184° |
| 2026-05-08 07:58 | 22.77057 | 88.46231 | 973 ft | 143 kts | 181° |
| 2026-05-08 07:58 | 22.76048 | 88.46177 | 992 ft | 146 kts | 181° |
| 2026-05-08 07:58 | 22.75022 | 88.46095 | 986 ft | 150 kts | 185° |
| 2026-05-08 07:58 | 22.73988 | 88.45980 | 984 ft | 150 kts | 184° |
| 2026-05-08 07:59 | 22.72935 | 88.45891 | 940 ft | 154 kts | 185° |
| 2026-05-08 07:59 | 22.71872 | 88.45815 | 860 ft | 154 kts | 182° |
| 2026-05-08 07:59 | 22.70797 | 88.45777 | 602 ft | 156 kts | 180° |
| 2026-05-08 07:59 | 22.69712 | 88.45784 | 430 ft | 151 kts | 180° |
| 2026-05-08 08:00 | 22.68710 | 88.45709 | 435 ft | 141 kts | 188° |
| 2026-05-08 08:00 | 22.67713 | 88.45577 | 350 ft | 150 kts | 183° |
| 2026-05-08 08:00 | 22.66557 | 88.45560 | 480 ft | 179 kts | 179° |
| 2026-05-08 08:00 | 22.65298 | 88.45582 | 1154 ft | 174 kts | 178° |
| 2026-05-08 08:01 | 22.64137 | 88.45606 | 2040 ft | 160 kts | 178° |
| 2026-05-08 08:01 | 22.63023 | 88.45623 | 2347 ft | 162 kts | 169° |
| 2026-05-08 08:01 | 22.62135 | 88.46252 | 2262 ft | 155 kts | 122° |
| 2026-05-08 08:01 | 22.61870 | 88.47359 | 2193 ft | 151 kts | 94° |
| 2026-05-08 08:02 | 22.61875 | 88.48497 | 2119 ft | 151 kts | 89° |
| 2026-05-08 08:02 | 22.61925 | 88.49618 | 2058 ft | 148 kts | 88° |
| 2026-05-08 08:02 | 22.61986 | 88.50728 | 2035 ft | 148 kts | 88° |
| 2026-05-08 08:02 | 22.62053 | 88.51841 | 2013 ft | 147 kts | 87° |
| 2026-05-08 08:03 | 22.62120 | 88.52941 | 2010 ft | 147 kts | 88° |
| 2026-05-08 08:03 | 22.62189 | 88.54053 | 2013 ft | 148 kts | 87° |
| 2026-05-08 08:03 | 22.62257 | 88.55227 | 2049 ft | 172 kts | 88° |
| 2026-05-08 08:03 | 22.62337 | 88.56571 | 2217 ft | 183 kts | 88° |
| 2026-05-08 08:04 | 22.62419 | 88.57944 | 2383 ft | 187 kts | 88° |
| 2026-05-08 08:04 | 22.62500 | 88.59350 | 2561 ft | 189 kts | 86° |
| 2026-05-08 08:04 | 22.62609 | 88.60780 | 2735 ft | 192 kts | 79° |
| 2026-05-08 08:04 | 22.63265 | 88.62023 | 2910 ft | 194 kts | 39° |
| 2026-05-08 08:05 | 22.64494 | 88.62584 | 3089 ft | 194 kts | 8° |
| 2026-05-08 08:05 | 22.65833 | 88.62754 | 3259 ft | 194 kts | 3° |
| 2026-05-08 08:05 | 22.67180 | 88.62866 | 3436 ft | 194 kts | 2° |
| 2026-05-08 08:05 | 22.68534 | 88.62972 | 3507 ft | 194 kts | 2° |
| 2026-05-08 08:06 | 22.69883 | 88.63077 | 3510 ft | 194 kts | 2° |
| 2026-05-08 08:06 | 22.71234 | 88.63180 | 3517 ft | 194 kts | 2° |
| 2026-05-08 08:06 | 22.72577 | 88.63180 | 3516 ft | 193 kts | 346° |
| 2026-05-08 08:06 | 22.73807 | 88.62638 | 3511 ft | 191 kts | 332° |
| 2026-05-08 08:07 | 22.74981 | 88.62006 | 3511 ft | 191 kts | 332° |
| 2026-05-08 08:07 | 22.76169 | 88.61366 | 3514 ft | 191 kts | 332° |
| 2026-05-08 08:07 | 22.77358 | 88.60723 | 3518 ft | 191 kts | 332° |
| 2026-05-08 08:07 | 22.78548 | 88.60073 | 3508 ft | 192 kts | 332° |
| 2026-05-08 08:08 | 22.79739 | 88.59424 | 3513 ft | 192 kts | 332° |
| 2026-05-08 08:08 | 22.80928 | 88.58770 | 3517 ft | 191 kts | 331° |
| 2026-05-08 08:08 | 22.82113 | 88.58114 | 3513 ft | 192 kts | 332° |
| 2026-05-08 08:08 | 22.83312 | 88.57473 | 3511 ft | 191 kts | 332° |
| 2026-05-08 08:09 | 22.84510 | 88.56850 | 3508 ft | 191 kts | 333° |
| 2026-05-08 08:09 | 22.85712 | 88.56217 | 3517 ft | 192 kts | 332° |
| 2026-05-08 08:09 | 22.86790 | 88.55430 | 3513 ft | 181 kts | 310° |
| 2026-05-08 08:09 | 22.87350 | 88.54276 | 3355 ft | 169 kts | 280° |
| 2026-05-08 08:10 | 22.87317 | 88.53065 | 3286 ft | 155 kts | 252° |
| 2026-05-08 08:10 | 22.86825 | 88.52074 | 3264 ft | 149 kts | 226° |
| 2026-05-08 08:10 | 22.86044 | 88.51362 | 3222 ft | 146 kts | 219° |
| 2026-05-08 08:10 | 22.85250 | 88.50691 | 3192 ft | 146 kts | 217° |
| 2026-05-08 08:11 | 22.84455 | 88.50008 | 3166 ft | 145 kts | 219° |
| 2026-05-08 08:11 | 22.83662 | 88.49321 | 3137 ft | 145 kts | 219° |
| 2026-05-08 08:11 | 22.82863 | 88.48634 | 3095 ft | 146 kts | 217° |
| 2026-05-08 08:11 | 22.82091 | 88.47976 | 3022 ft | 140 kts | 219° |
| 2026-05-08 08:12 | 22.81334 | 88.47325 | 2865 ft | 137 kts | 219° |
| 2026-05-08 08:12 | 22.80553 | 88.46754 | 2719 ft | 135 kts | 207° |
| 2026-05-08 08:12 | 22.79642 | 88.46507 | 2525 ft | 138 kts | 188° |
| 2026-05-08 08:12 | 22.78694 | 88.46366 | 2312 ft | 138 kts | 188° |
| 2026-05-08 08:13 | 22.77750 | 88.46235 | 2130 ft | 137 kts | 185° |
| 2026-05-08 08:13 | 22.76815 | 88.46116 | 1950 ft | 137 kts | 186° |
| 2026-05-08 08:13 | 22.75871 | 88.46001 | 1769 ft | 137 kts | 185° |
| 2026-05-08 08:13 | 22.74924 | 88.45889 | 1585 ft | 137 kts | 185° |
| 2026-05-08 08:14 | 22.73978 | 88.45777 | 1412 ft | 137 kts | 185° |
| 2026-05-08 08:14 | 22.73028 | 88.45665 | 1223 ft | 137 kts | 184° |
| 2026-05-08 08:14 | 22.72079 | 88.45553 | 1040 ft | 137 kts | 184° |
| 2026-05-08 08:14 | 22.71126 | 88.45441 | 858 ft | 138 kts | 185° |
| 2026-05-08 08:15 | 22.70166 | 88.45328 | 674 ft | 139 kts | 185° |
| 2026-05-08 08:15 | 22.69197 | 88.45214 | 491 ft | 140 kts | 186° |
| 2026-05-08 08:15 | 22.68235 | 88.45103 | 305 ft | 139 kts | 186° |
| 2026-05-08 08:15 | 22.67274 | 88.44991 | 112 ft | 139 kts | 186° |
| 2026-05-08 08:16 | 22.66337 | 88.44881 | 27 ft | 125 kts | 186° |
| 2026-05-08 08:16 | 22.65767 | 88.44813 | 31 ft | 48 kts | 186° |
| 2026-05-08 08:16 | 22.65503 | 88.44783 | 29 ft | 33 kts | 186° |
| 2026-05-08 08:16 | 22.65267 | 88.44757 | 28 ft | 35 kts | 185° |
| 2026-05-08 08:17 | 22.65016 | 88.44721 | 25 ft | 37 kts | 193° |
| 2026-05-08 08:17 | 22.64826 | 88.44605 | 26 ft | 16 kts | 214° |
| 2026-05-08 08:17 | 22.64739 | 88.44541 | 32 ft | 17 kts | 214° |
| 2026-05-08 08:17 | 22.64659 | 88.44474 | 28 ft | 9 kts | 250° |
| 2026-05-08 08:18 | 22.64659 | 88.44397 | 28 ft | 11 kts | 270° |
| 2026-05-08 08:18 | 22.64634 | 88.44361 | 28 ft | 7 kts | 202° |
| 2026-05-08 08:18 | 22.64574 | 88.44353 | 28 ft | 11 kts | 187° |
| 2026-05-08 08:18 | 22.64489 | 88.44342 | 28 ft | 14 kts | 186° |
| 2026-05-08 08:19 | 22.64381 | 88.44334 | 29 ft | 16 kts | 185° |
| 2026-05-08 08:19 | 22.64324 | 88.44310 | 29 ft | 7 kts | 241° |
| 2026-05-08 08:19 | 22.64325 | 88.44245 | 29 ft | 11 kts | 277° |
| 2026-05-08 08:19 | 22.64332 | 88.44154 | 29 ft | 10 kts | 275° |
| 2026-05-08 08:20 | 22.64339 | 88.44090 | 29 ft | 5 kts | 276° |
| 2026-05-08 08:20 | 22.64342 | 88.44073 | 29 ft | 2 kts | 278° |
| 2026-05-08 08:20 | 22.64342 | 88.44069 | 29 ft | 0 kts | 277° |